TAF and METAR

Decoding for American and Canadian METARs and TAFs is not fully implemented.

Could not understand the following METAR

CWPX 191500Z AUTO 10011KT ////SM //// BKN065 OVC075 M27/M31 A2990
No TAF available for Cape Peel West
Cape Peel West in Canada at 165m

Latest 5 airports